<?xml version="1.0" encoding="UTF-8" standalone="no" ?>
<gpx xmlns="http://www.topografix.com/GPX/1/1" xmlns:xsi="http://www.w3.org/2001/XMLSchema-instance" xsi:schemaLocation="http://www.topografix.com/GPX/1/1 http://www.topografix.com/GPX/1/1/gpx.xsd" version="1.1" creator="VisuGPX - https://www.visugpx.com">
  <metadata>
    <name>11: Ravin de Coulon - sentier forestier</name>
    <desc><![CDATA[11: Ravin de Coulon - sentier forestier]]></desc>
  </metadata>
  <wpt lat="43.83565" lon="3.12242">
    <ele>530.1</ele>
    <name><![CDATA[PCB]]></name>
  </wpt>
  <wpt lat="43.82985" lon="3.129">
    <ele>500</ele>
    <name><![CDATA[MSR]]></name>
  </wpt>
  <wpt lat="43.82921" lon="3.12521">
    <ele>514.9</ele>
    <name><![CDATA[RCA]]></name>
  </wpt>
  <wpt lat="43.82894" lon="3.12881">
    <ele>555</ele>
    <name><![CDATA[RCB]]></name>
  </wpt>
  <wpt lat="43.82762" lon="3.1252">
    <ele>585.1</ele>
    <name><![CDATA[RCC]]></name>
  </wpt>
  <wpt lat="43.82395" lon="3.11845">
    <ele>592.1</ele>
    <name><![CDATA[RCO]]></name>
  </wpt>
  <wpt lat="43.82324" lon="3.11774">
    <ele>600</ele>
    <name><![CDATA[RCD]]></name>
  </wpt>
  <wpt lat="43.82217" lon="3.11579">
    <ele>635.1</ele>
    <name><![CDATA[RCE]]></name>
  </wpt>
  <wpt lat="43.82163" lon="3.11461">
    <ele>650</ele>
    <name><![CDATA[RCF]]></name>
  </wpt>
  <wpt lat="43.82132" lon="3.11361">
    <ele>669.9</ele>
    <name><![CDATA[RCG]]></name>
  </wpt>
  <wpt lat="43.82066" lon="3.11182">
    <ele>690.1</ele>
    <name><![CDATA[RCH]]></name>
  </wpt>
  <wpt lat="43.82011" lon="3.11074">
    <ele>694.9</ele>
    <name><![CDATA[RCI]]></name>
  </wpt>
  <wpt lat="43.81894" lon="3.11018">
    <ele>719.9</ele>
    <name><![CDATA[PTF]]></name>
  </wpt>
  <wpt lat="43.82091" lon="3.10845">
    <ele>719.9</ele>
    <name><![CDATA[PTE]]></name>
  </wpt>
  <wpt lat="43.82257" lon="3.10579">
    <ele>750</ele>
    <name><![CDATA[RMD]]></name>
  </wpt>
  <wpt lat="43.82227" lon="3.1039">
    <ele>750</ele>
    <name><![CDATA[PTD]]></name>
  </wpt>
  <wpt lat="43.82502" lon="3.10689">
    <ele>710.1</ele>
    <name><![CDATA[SFD]]></name>
  </wpt>
  <wpt lat="43.8287" lon="3.1093">
    <ele>660.1</ele>
    <name><![CDATA[SFC]]></name>
  </wpt>
  <wpt lat="43.83028" lon="3.11214">
    <ele>630</ele>
    <name><![CDATA[SFB]]></name>
  </wpt>
  <wpt lat="43.83043" lon="3.11691">
    <ele>575</ele>
    <name><![CDATA[SFA]]></name>
  </wpt>
  <wpt lat="43.83608" lon="3.12216">
    <ele>530.1</ele>
    <name><![CDATA[PCC]]></name>
  </wpt>
  <wpt lat="43.83631" lon="3.12279">
    <ele>520</ele>
    <name><![CDATA[Accueil PdC Centre]]></name>
  </wpt>
  <trk>
    <name><![CDATA[RoTra 11 PdC]]></name>
    <trkseg>
      <trkpt lat="43.83564" lon="3.12243">
        <ele>530</ele>
        <time>2010-01-01T00:00:00Z</time>
      </trkpt>
      <trkpt lat="43.83563" lon="3.1225">
        <ele>530</ele>
        <time>2010-01-01T00:00:09Z</time>
      </trkpt>
      <trkpt lat="43.83566" lon="3.12265">
        <ele>529</ele>
        <time>2010-01-01T00:00:30Z</time>
      </trkpt>
      <trkpt lat="43.83565" lon="3.12282">
        <ele>528</ele>
        <time>2010-01-01T00:00:53Z</time>
      </trkpt>
      <trkpt lat="43.83518" lon="3.12355">
        <ele>538</ele>
        <time>2010-01-01T00:03:07Z</time>
      </trkpt>
      <trkpt lat="43.83501" lon="3.12398">
        <ele>532</ele>
        <time>2010-01-01T00:04:15Z</time>
      </trkpt>
      <trkpt lat="43.83469" lon="3.12454">
        <ele>533</ele>
        <time>2010-01-01T00:05:52Z</time>
      </trkpt>
      <trkpt lat="43.83443" lon="3.12491">
        <ele>533</ele>
        <time>2010-01-01T00:07:03Z</time>
      </trkpt>
      <trkpt lat="43.8338" lon="3.12587">
        <ele>534</ele>
        <time>2010-01-01T00:10:02Z</time>
      </trkpt>
      <trkpt lat="43.83287" lon="3.12721">
        <ele>530</ele>
        <time>2010-01-01T00:14:15Z</time>
      </trkpt>
      <trkpt lat="43.83256" lon="3.12757">
        <ele>526</ele>
        <time>2010-01-01T00:15:32Z</time>
      </trkpt>
      <trkpt lat="43.83228" lon="3.12782">
        <ele>529</ele>
        <time>2010-01-01T00:16:35Z</time>
      </trkpt>
      <trkpt lat="43.83194" lon="3.12825">
        <ele>525</ele>
        <time>2010-01-01T00:18:04Z</time>
      </trkpt>
      <trkpt lat="43.83153" lon="3.12861">
        <ele>522</ele>
        <time>2010-01-01T00:19:34Z</time>
      </trkpt>
      <trkpt lat="43.83086" lon="3.12907">
        <ele>510</ele>
        <time>2010-01-01T00:21:56Z</time>
      </trkpt>
      <trkpt lat="43.83069" lon="3.12915">
        <ele>506</ele>
        <time>2010-01-01T00:22:31Z</time>
      </trkpt>
      <trkpt lat="43.82996" lon="3.12907">
        <ele>506</ele>
        <time>2010-01-01T00:24:49Z</time>
      </trkpt>
      <trkpt lat="43.82986" lon="3.12901">
        <ele>510</ele>
        <time>2010-01-01T00:25:10Z</time>
      </trkpt>
      <trkpt lat="43.82985" lon="3.129">
        <ele>510</ele>
        <time>2010-01-01T00:25:12Z</time>
      </trkpt>
      <trkpt lat="43.82978" lon="3.1284">
        <ele>519</ele>
        <time>2010-01-01T00:26:36Z</time>
      </trkpt>
      <trkpt lat="43.82977" lon="3.12785">
        <ele>525</ele>
        <time>2010-01-01T00:27:51Z</time>
      </trkpt>
      <trkpt lat="43.82956" lon="3.12686">
        <ele>535</ele>
        <time>2010-01-01T00:30:13Z</time>
      </trkpt>
      <trkpt lat="43.82953" lon="3.12633">
        <ele>538</ele>
        <time>2010-01-01T00:31:26Z</time>
      </trkpt>
      <trkpt lat="43.82949" lon="3.12614">
        <ele>539</ele>
        <time>2010-01-01T00:31:53Z</time>
      </trkpt>
      <trkpt lat="43.82941" lon="3.12591">
        <ele>538</ele>
        <time>2010-01-01T00:32:28Z</time>
      </trkpt>
      <trkpt lat="43.8294" lon="3.12537">
        <ele>540</ele>
        <time>2010-01-01T00:33:42Z</time>
      </trkpt>
      <trkpt lat="43.82935" lon="3.12521">
        <ele>539</ele>
        <time>2010-01-01T00:34:06Z</time>
      </trkpt>
      <trkpt lat="43.82925" lon="3.12516">
        <ele>535</ele>
        <time>2010-01-01T00:34:26Z</time>
      </trkpt>
      <trkpt lat="43.82923" lon="3.12516">
        <ele>535</ele>
        <time>2010-01-01T00:34:29Z</time>
      </trkpt>
      <trkpt lat="43.82914" lon="3.12522">
        <ele>533</ele>
        <time>2010-01-01T00:34:47Z</time>
      </trkpt>
      <trkpt lat="43.82906" lon="3.12574">
        <ele>538</ele>
        <time>2010-01-01T00:36:00Z</time>
      </trkpt>
      <trkpt lat="43.829" lon="3.12756">
        <ele>540</ele>
        <time>2010-01-01T00:40:09Z</time>
      </trkpt>
      <trkpt lat="43.82902" lon="3.12828">
        <ele>541</ele>
        <time>2010-01-01T00:41:48Z</time>
      </trkpt>
      <trkpt lat="43.82899" lon="3.12876">
        <ele>539</ele>
        <time>2010-01-01T00:42:54Z</time>
      </trkpt>
      <trkpt lat="43.82893" lon="3.12881">
        <ele>542</ele>
        <time>2010-01-01T00:43:06Z</time>
      </trkpt>
      <trkpt lat="43.82892" lon="3.12881">
        <ele>543</ele>
        <time>2010-01-01T00:43:09Z</time>
      </trkpt>
      <trkpt lat="43.82889" lon="3.12874">
        <ele>545</ele>
        <time>2010-01-01T00:43:20Z</time>
      </trkpt>
      <trkpt lat="43.82888" lon="3.12841">
        <ele>550</ele>
        <time>2010-01-01T00:44:05Z</time>
      </trkpt>
      <trkpt lat="43.82884" lon="3.1281">
        <ele>553</ele>
        <time>2010-01-01T00:44:47Z</time>
      </trkpt>
      <trkpt lat="43.82865" lon="3.1273">
        <ele>564</ele>
        <time>2010-01-01T00:46:43Z</time>
      </trkpt>
      <trkpt lat="43.82851" lon="3.12647">
        <ele>569</ele>
        <time>2010-01-01T00:48:40Z</time>
      </trkpt>
      <trkpt lat="43.8284" lon="3.12603">
        <ele>571</ele>
        <time>2010-01-01T00:49:43Z</time>
      </trkpt>
      <trkpt lat="43.82832" lon="3.12583">
        <ele>574</ele>
        <time>2010-01-01T00:50:14Z</time>
      </trkpt>
      <trkpt lat="43.82822" lon="3.12569">
        <ele>575</ele>
        <time>2010-01-01T00:50:42Z</time>
      </trkpt>
      <trkpt lat="43.82768" lon="3.12516">
        <ele>585</ele>
        <time>2010-01-01T00:52:47Z</time>
      </trkpt>
      <trkpt lat="43.82766" lon="3.12519">
        <ele>587</ele>
        <time>2010-01-01T00:52:53Z</time>
      </trkpt>
      <trkpt lat="43.82764" lon="3.12518">
        <ele>587</ele>
        <time>2010-01-01T00:52:57Z</time>
      </trkpt>
      <trkpt lat="43.82755" lon="3.12504">
        <ele>587</ele>
        <time>2010-01-01T00:53:23Z</time>
      </trkpt>
      <trkpt lat="43.82676" lon="3.12401">
        <ele>608</ele>
        <time>2010-01-01T00:56:48Z</time>
      </trkpt>
      <trkpt lat="43.8266" lon="3.12374">
        <ele>615</ele>
        <time>2010-01-01T00:57:36Z</time>
      </trkpt>
      <trkpt lat="43.82662" lon="3.1236">
        <ele>614</ele>
        <time>2010-01-01T00:57:55Z</time>
      </trkpt>
      <trkpt lat="43.82668" lon="3.12356">
        <ele>612</ele>
        <time>2010-01-01T00:58:08Z</time>
      </trkpt>
      <trkpt lat="43.82708" lon="3.12351">
        <ele>596</ele>
        <time>2010-01-01T00:59:25Z</time>
      </trkpt>
      <trkpt lat="43.82716" lon="3.12345">
        <ele>593</ele>
        <time>2010-01-01T00:59:41Z</time>
      </trkpt>
      <trkpt lat="43.82715" lon="3.12332">
        <ele>593</ele>
        <time>2010-01-01T00:59:59Z</time>
      </trkpt>
      <trkpt lat="43.82512" lon="3.12018">
        <ele>601</ele>
        <time>2010-01-01T01:09:35Z</time>
      </trkpt>
      <trkpt lat="43.82457" lon="3.1195">
        <ele>601</ele>
        <time>2010-01-01T01:11:57Z</time>
      </trkpt>
      <trkpt lat="43.82442" lon="3.11938">
        <ele>601</ele>
        <time>2010-01-01T01:12:28Z</time>
      </trkpt>
      <trkpt lat="43.82421" lon="3.11933">
        <ele>603</ele>
        <time>2010-01-01T01:13:09Z</time>
      </trkpt>
      <trkpt lat="43.82415" lon="3.11925">
        <ele>601</ele>
        <time>2010-01-01T01:13:24Z</time>
      </trkpt>
      <trkpt lat="43.82416" lon="3.11899">
        <ele>601</ele>
        <time>2010-01-01T01:14:00Z</time>
      </trkpt>
      <trkpt lat="43.82396" lon="3.11857">
        <ele>609</ele>
        <time>2010-01-01T01:15:10Z</time>
      </trkpt>
      <trkpt lat="43.82396" lon="3.11846">
        <ele>609</ele>
        <time>2010-01-01T01:15:25Z</time>
      </trkpt>
      <trkpt lat="43.82396" lon="3.11843">
        <ele>609</ele>
        <time>2010-01-01T01:15:28Z</time>
      </trkpt>
      <trkpt lat="43.8235" lon="3.11797">
        <ele>620</ele>
        <time>2010-01-01T01:17:16Z</time>
      </trkpt>
      <trkpt lat="43.82325" lon="3.11773">
        <ele>625</ele>
        <time>2010-01-01T01:18:14Z</time>
      </trkpt>
      <trkpt lat="43.82324" lon="3.11773">
        <ele>625</ele>
        <time>2010-01-01T01:18:15Z</time>
      </trkpt>
      <trkpt lat="43.82269" lon="3.11659">
        <ele>647</ele>
        <time>2010-01-01T01:21:23Z</time>
      </trkpt>
      <trkpt lat="43.82234" lon="3.11613">
        <ele>654</ele>
        <time>2010-01-01T01:22:56Z</time>
      </trkpt>
      <trkpt lat="43.82217" lon="3.11577">
        <ele>660</ele>
        <time>2010-01-01T01:23:54Z</time>
      </trkpt>
      <trkpt lat="43.82217" lon="3.11578">
        <ele>659</ele>
        <time>2010-01-01T01:23:56Z</time>
      </trkpt>
      <trkpt lat="43.82196" lon="3.1154">
        <ele>665</ele>
        <time>2010-01-01T01:25:01Z</time>
      </trkpt>
      <trkpt lat="43.8217" lon="3.11512">
        <ele>665</ele>
        <time>2010-01-01T01:26:04Z</time>
      </trkpt>
      <trkpt lat="43.8216" lon="3.11463">
        <ele>670</ele>
        <time>2010-01-01T01:27:13Z</time>
      </trkpt>
      <trkpt lat="43.8216" lon="3.11463">
        <ele>670</ele>
        <time>2010-01-01T01:27:14Z</time>
      </trkpt>
      <trkpt lat="43.82154" lon="3.11426">
        <ele>674</ele>
        <time>2010-01-01T01:28:05Z</time>
      </trkpt>
      <trkpt lat="43.82132" lon="3.11363">
        <ele>687</ele>
        <time>2010-01-01T01:29:41Z</time>
      </trkpt>
      <trkpt lat="43.82131" lon="3.11361">
        <ele>687</ele>
        <time>2010-01-01T01:29:44Z</time>
      </trkpt>
      <trkpt lat="43.82099" lon="3.11247">
        <ele>695</ele>
        <time>2010-01-01T01:32:32Z</time>
      </trkpt>
      <trkpt lat="43.82065" lon="3.11182">
        <ele>699</ele>
        <time>2010-01-01T01:34:21Z</time>
      </trkpt>
      <trkpt lat="43.82064" lon="3.11181">
        <ele>699</ele>
        <time>2010-01-01T01:34:24Z</time>
      </trkpt>
      <trkpt lat="43.82044" lon="3.11132">
        <ele>705</ele>
        <time>2010-01-01T01:35:42Z</time>
      </trkpt>
      <trkpt lat="43.82016" lon="3.11095">
        <ele>707</ele>
        <time>2010-01-01T01:36:55Z</time>
      </trkpt>
      <trkpt lat="43.82005" lon="3.11082">
        <ele>706</ele>
        <time>2010-01-01T01:37:22Z</time>
      </trkpt>
      <trkpt lat="43.82003" lon="3.1108">
        <ele>706</ele>
        <time>2010-01-01T01:37:27Z</time>
      </trkpt>
      <trkpt lat="43.81954" lon="3.11071">
        <ele>711</ele>
        <time>2010-01-01T01:39:00Z</time>
      </trkpt>
      <trkpt lat="43.81927" lon="3.11067">
        <ele>714</ele>
        <time>2010-01-01T01:39:53Z</time>
      </trkpt>
      <trkpt lat="43.81895" lon="3.11019">
        <ele>706</ele>
        <time>2010-01-01T01:41:22Z</time>
      </trkpt>
      <trkpt lat="43.81894" lon="3.11017">
        <ele>706</ele>
        <time>2010-01-01T01:41:26Z</time>
      </trkpt>
      <trkpt lat="43.81927" lon="3.10964">
        <ele>707</ele>
        <time>2010-01-01T01:43:02Z</time>
      </trkpt>
      <trkpt lat="43.82012" lon="3.10857">
        <ele>713</ele>
        <time>2010-01-01T01:46:41Z</time>
      </trkpt>
      <trkpt lat="43.82041" lon="3.10841">
        <ele>716</ele>
        <time>2010-01-01T01:47:40Z</time>
      </trkpt>
      <trkpt lat="43.82085" lon="3.10844">
        <ele>722</ele>
        <time>2010-01-01T01:49:02Z</time>
      </trkpt>
      <trkpt lat="43.82086" lon="3.10845">
        <ele>722</ele>
        <time>2010-01-01T01:49:04Z</time>
      </trkpt>
      <trkpt lat="43.82117" lon="3.10841">
        <ele>724</ele>
        <time>2010-01-01T01:50:04Z</time>
      </trkpt>
      <trkpt lat="43.82144" lon="3.10815">
        <ele>727</ele>
        <time>2010-01-01T01:51:06Z</time>
      </trkpt>
      <trkpt lat="43.82174" lon="3.10876">
        <ele>730</ele>
        <time>2010-01-01T01:52:48Z</time>
      </trkpt>
      <trkpt lat="43.82203" lon="3.10855">
        <ele>732</ele>
        <time>2010-01-01T01:53:49Z</time>
      </trkpt>
      <trkpt lat="43.82246" lon="3.10793">
        <ele>738</ele>
        <time>2010-01-01T01:55:46Z</time>
      </trkpt>
      <trkpt lat="43.82261" lon="3.10728">
        <ele>742</ele>
        <time>2010-01-01T01:57:20Z</time>
      </trkpt>
      <trkpt lat="43.82246" lon="3.10687">
        <ele>743</ele>
        <time>2010-01-01T01:58:24Z</time>
      </trkpt>
      <trkpt lat="43.82251" lon="3.10585">
        <ele>746</ele>
        <time>2010-01-01T02:00:43Z</time>
      </trkpt>
      <trkpt lat="43.82251" lon="3.10583">
        <ele>746</ele>
        <time>2010-01-01T02:00:46Z</time>
      </trkpt>
      <trkpt lat="43.82253" lon="3.10537">
        <ele>747</ele>
        <time>2010-01-01T02:01:49Z</time>
      </trkpt>
      <trkpt lat="43.82253" lon="3.10512">
        <ele>748</ele>
        <time>2010-01-01T02:02:23Z</time>
      </trkpt>
      <trkpt lat="43.82247" lon="3.10498">
        <ele>749</ele>
        <time>2010-01-01T02:02:46Z</time>
      </trkpt>
      <trkpt lat="43.82248" lon="3.10471">
        <ele>748</ele>
        <time>2010-01-01T02:03:23Z</time>
      </trkpt>
      <trkpt lat="43.82237" lon="3.1041">
        <ele>744</ele>
        <time>2010-01-01T02:04:49Z</time>
      </trkpt>
      <trkpt lat="43.82229" lon="3.10392">
        <ele>743</ele>
        <time>2010-01-01T02:05:18Z</time>
      </trkpt>
      <trkpt lat="43.8223" lon="3.10391">
        <ele>744</ele>
        <time>2010-01-01T02:05:20Z</time>
      </trkpt>
      <trkpt lat="43.82337" lon="3.10485">
        <ele>739</ele>
        <time>2010-01-01T02:09:20Z</time>
      </trkpt>
      <trkpt lat="43.82389" lon="3.10571">
        <ele>735</ele>
        <time>2010-01-01T02:11:54Z</time>
      </trkpt>
      <trkpt lat="43.82463" lon="3.10658">
        <ele>727</ele>
        <time>2010-01-01T02:14:59Z</time>
      </trkpt>
      <trkpt lat="43.82499" lon="3.10691">
        <ele>723</ele>
        <time>2010-01-01T02:16:19Z</time>
      </trkpt>
      <trkpt lat="43.82502" lon="3.10694">
        <ele>723</ele>
        <time>2010-01-01T02:16:27Z</time>
      </trkpt>
      <trkpt lat="43.8254" lon="3.10735">
        <ele>721</ele>
        <time>2010-01-01T02:17:58Z</time>
      </trkpt>
      <trkpt lat="43.82575" lon="3.10757">
        <ele>717</ele>
        <time>2010-01-01T02:19:12Z</time>
      </trkpt>
      <trkpt lat="43.82643" lon="3.10779">
        <ele>712</ele>
        <time>2010-01-01T02:21:23Z</time>
      </trkpt>
      <trkpt lat="43.82688" lon="3.10805">
        <ele>707</ele>
        <time>2010-01-01T02:22:55Z</time>
      </trkpt>
      <trkpt lat="43.82731" lon="3.10825">
        <ele>699</ele>
        <time>2010-01-01T02:24:22Z</time>
      </trkpt>
      <trkpt lat="43.82803" lon="3.10868">
        <ele>690</ele>
        <time>2010-01-01T02:26:51Z</time>
      </trkpt>
      <trkpt lat="43.8287" lon="3.1093">
        <ele>679</ele>
        <time>2010-01-01T02:29:23Z</time>
      </trkpt>
      <trkpt lat="43.82871" lon="3.10931">
        <ele>679</ele>
        <time>2010-01-01T02:29:27Z</time>
      </trkpt>
      <trkpt lat="43.82905" lon="3.10974">
        <ele>671</ele>
        <time>2010-01-01T02:30:53Z</time>
      </trkpt>
      <trkpt lat="43.82954" lon="3.11066">
        <ele>664</ele>
        <time>2010-01-01T02:33:30Z</time>
      </trkpt>
      <trkpt lat="43.82987" lon="3.11132">
        <ele>655</ele>
        <time>2010-01-01T02:35:20Z</time>
      </trkpt>
      <trkpt lat="43.83027" lon="3.11206">
        <ele>648</ele>
        <time>2010-01-01T02:37:27Z</time>
      </trkpt>
      <trkpt lat="43.83028" lon="3.11209">
        <ele>647</ele>
        <time>2010-01-01T02:37:31Z</time>
      </trkpt>
      <trkpt lat="43.83047" lon="3.11255">
        <ele>645</ele>
        <time>2010-01-01T02:38:43Z</time>
      </trkpt>
      <trkpt lat="43.83058" lon="3.11316">
        <ele>640</ele>
        <time>2010-01-01T02:40:09Z</time>
      </trkpt>
      <trkpt lat="43.8306" lon="3.11372">
        <ele>635</ele>
        <time>2010-01-01T02:41:26Z</time>
      </trkpt>
      <trkpt lat="43.83058" lon="3.11436">
        <ele>628</ele>
        <time>2010-01-01T02:42:54Z</time>
      </trkpt>
      <trkpt lat="43.8305" lon="3.11492">
        <ele>623</ele>
        <time>2010-01-01T02:44:12Z</time>
      </trkpt>
      <trkpt lat="43.8304" lon="3.11567">
        <ele>612</ele>
        <time>2010-01-01T02:45:56Z</time>
      </trkpt>
      <trkpt lat="43.83031" lon="3.11623">
        <ele>602</ele>
        <time>2010-01-01T02:47:14Z</time>
      </trkpt>
      <trkpt lat="43.83036" lon="3.11675">
        <ele>595</ele>
        <time>2010-01-01T02:48:26Z</time>
      </trkpt>
      <trkpt lat="43.83048" lon="3.1171">
        <ele>594</ele>
        <time>2010-01-01T02:49:20Z</time>
      </trkpt>
      <trkpt lat="43.83061" lon="3.11716">
        <ele>592</ele>
        <time>2010-01-01T02:49:46Z</time>
      </trkpt>
      <trkpt lat="43.83063" lon="3.11718">
        <ele>591</ele>
        <time>2010-01-01T02:49:50Z</time>
      </trkpt>
      <trkpt lat="43.83102" lon="3.11752">
        <ele>587</ele>
        <time>2010-01-01T02:51:17Z</time>
      </trkpt>
      <trkpt lat="43.83138" lon="3.11795">
        <ele>590</ele>
        <time>2010-01-01T02:52:48Z</time>
      </trkpt>
      <trkpt lat="43.83174" lon="3.11828">
        <ele>584</ele>
        <time>2010-01-01T02:54:09Z</time>
      </trkpt>
      <trkpt lat="43.83228" lon="3.11898">
        <ele>574</ele>
        <time>2010-01-01T02:56:30Z</time>
      </trkpt>
      <trkpt lat="43.83295" lon="3.11958">
        <ele>567</ele>
        <time>2010-01-01T02:59:01Z</time>
      </trkpt>
      <trkpt lat="43.83353" lon="3.11989">
        <ele>558</ele>
        <time>2010-01-01T03:01:00Z</time>
      </trkpt>
      <trkpt lat="43.83383" lon="3.12013">
        <ele>555</ele>
        <time>2010-01-01T03:02:05Z</time>
      </trkpt>
      <trkpt lat="43.83399" lon="3.12014">
        <ele>554</ele>
        <time>2010-01-01T03:02:36Z</time>
      </trkpt>
      <trkpt lat="43.83478" lon="3.12047">
        <ele>551</ele>
        <time>2010-01-01T03:05:12Z</time>
      </trkpt>
      <trkpt lat="43.83525" lon="3.12094">
        <ele>544</ele>
        <time>2010-01-01T03:07:03Z</time>
      </trkpt>
      <trkpt lat="43.83573" lon="3.12153">
        <ele>537</ele>
        <time>2010-01-01T03:09:04Z</time>
      </trkpt>
      <trkpt lat="43.83603" lon="3.12203">
        <ele>528</ele>
        <time>2010-01-01T03:10:33Z</time>
      </trkpt>
      <trkpt lat="43.83607" lon="3.12214">
        <ele>527</ele>
        <time>2010-01-01T03:10:50Z</time>
      </trkpt>
    </trkseg>
  </trk>
</gpx>